Time;durP1;ratioP1;P1;durP2;ratioP2;P2;SDS_P1;SDS_P2;PMS_P1;PMS_P2;Temp;Humidity;BMP_temperature;BMP_pressure;BME280_temperature;BME280_humidity;BME280_pressure;Samples;Min_cycle;Max_cycle;Signal;HPM_P1;HPM_P2
2021/01/24 00:02:17;;;;;;;2.63;2.30;;;6.50;99.90;;;;;;5056829;28;20407;-73
2021/01/24 00:04:43;;;;;;;2.43;2.23;;;6.40;99.90;;;;;;5090464;27;20179;-73
2021/01/24 00:07:08;;;;;;;2.83;2.63;;;6.50;99.90;;;;;;5080851;28;20965;-73
2021/01/24 00:09:35;;;;;;;3.00;2.70;;;6.30;99.90;;;;;;5082784;28;20184;-73
2021/01/24 00:12:00;;;;;;;3.57;2.70;;;6.60;99.90;;;;;;5109642;28;20325;-73
2021/01/24 00:14:26;;;;;;;2.53;2.33;;;6.30;99.90;;;;;;5077173;28;20517;-73
2021/01/24 00:16:52;;;;;;;3.23;2.93;;;6.30;99.90;;;;;;5098859;28;20225;-73
2021/01/24 00:19:17;;;;;;;2.97;2.70;;;6.40;99.90;;;;;;5089769;28;20184;-73
2021/01/24 00:21:43;;;;;;;4.07;3.70;;;6.20;99.90;;;;;;5102157;28;20215;-73
2021/01/24 00:24:09;;;;;;;4.40;3.80;;;6.20;99.90;;;;;;5055239;28;20192;-75
2021/01/24 00:26:35;;;;;;;4.50;3.47;;;5.70;99.90;;;;;;5091369;28;20191;-73
2021/01/24 00:29:03;;;;;;;3.77;3.43;;;6.00;99.90;;;;;;5069021;28;21032;-73
2021/01/24 00:31:28;;;;;;;3.33;3.03;;;5.60;99.90;;;;;;5091956;28;20258;-73
2021/01/24 00:33:54;;;;;;;3.10;2.80;;;5.70;99.90;;;;;;5073179;28;20950;-73
2021/01/24 00:36:20;;;;;;;3.27;2.97;;;5.60;99.90;;;;;;5109501;28;20625;-74
2021/01/24 00:38:47;;;;;;;4.17;3.77;;;5.30;99.90;;;;;;5108925;28;20178;-74
2021/01/24 00:41:13;;;;;;;4.00;2.87;;;5.40;99.90;;;;;;5109020;28;20460;-73
2021/01/24 00:43:39;;;;;;;4.43;3.53;;;5.40;99.90;;;;;;5088552;28;20438;-73
2021/01/24 00:46:05;;;;;;;3.47;3.13;;;5.50;99.90;;;;;;5098423;27;20245;-73
2021/01/24 00:48:35;;;;;;;4.70;3.30;;;5.40;99.90;;;;;;5101317;28;20433;-73
2021/01/24 00:51:01;;;;;;;3.80;3.37;;;5.60;99.90;;;;;;5068276;28;20211;-74
2021/01/24 00:53:27;;;;;;;3.43;3.13;;;5.60;99.90;;;;;;5087348;28;20694;-73
2021/01/24 00:55:54;;;;;;;3.80;3.40;;;5.40;99.90;;;;;;5108654;28;20466;-73
2021/01/24 00:58:28;;;;;;;4.27;3.87;;;5.40;99.90;;;;;;5089611;28;20437;-73
2021/01/24 01:00:54;;;;;;;4.37;3.67;;;5.40;99.90;;;;;;5083485;28;20473;-73
2021/01/24 01:03:23;;;;;;;4.70;3.83;;;5.20;99.90;;;;;;5075072;28;20430;-73
2021/01/24 01:05:49;;;;;;;4.70;4.30;;;5.30;99.90;;;;;;5069804;28;20454;-73
2021/01/24 01:08:14;;;;;;;4.30;3.90;;;5.30;99.90;;;;;;5106098;28;20943;-73
2021/01/24 01:10:40;;;;;;;5.03;4.20;;;5.20;99.90;;;;;;5089991;28;20220;-73
2021/01/24 01:13:07;;;;;;;6.43;4.40;;;5.10;99.90;;;;;;5106818;28;20180;-73
2021/01/24 01:15:32;;;;;;;4.30;3.90;;;5.10;99.90;;;;;;5089875;28;20483;-73
2021/01/24 01:17:58;;;;;;;5.33;4.20;;;4.90;99.90;;;;;;5108369;28;20417;-73
2021/01/24 01:20:24;;;;;;;5.17;4.67;;;4.90;99.90;;;;;;5108086;28;20294;-73
2021/01/24 01:22:53;;;;;;;4.87;4.33;;;4.90;99.90;;;;;;5107927;28;20437;-73
2021/01/24 01:25:19;;;;;;;6.27;4.60;;;4.80;99.90;;;;;;5090511;28;20466;-73
2021/01/24 01:27:44;;;;;;;4.17;3.77;;;4.50;99.90;;;;;;5108212;28;20624;-73
2021/01/24 01:30:13;;;;;;;6.83;4.40;;;4.60;99.90;;;;;;5064428;28;20219;-73
2021/01/24 01:32:39;;;;;;;4.07;3.67;;;4.70;99.90;;;;;;5092739;28;20186;-73
2021/01/24 01:35:06;;;;;;;4.43;4.03;;;4.80;99.90;;;;;;5089547;28;20433;-73
2021/01/24 01:37:31;;;;;;;5.03;4.30;;;4.60;99.90;;;;;;5089246;28;20429;-73
2021/01/24 01:39:57;;;;;;;5.57;4.70;;;4.50;99.90;;;;;;5107938;28;20453;-73
2021/01/24 01:42:23;;;;;;;4.97;4.40;;;4.40;99.90;;;;;;5055175;28;20191;-73
2021/01/24 01:44:49;;;;;;;6.73;4.90;;;4.60;99.90;;;;;;5080289;28;20434;-73
2021/01/24 01:47:22;;;;;;;4.90;4.27;;;4.60;99.90;;;;;;5093364;28;20535;-73
2021/01/24 01:49:50;;;;;;;5.13;4.60;;;4.60;99.90;;;;;;5080400;28;20829;-73
2021/01/24 01:52:16;;;;;;;5.10;4.30;;;4.60;99.90;;;;;;5089260;28;20429;-73
2021/01/24 01:54:47;;;;;;;5.93;4.40;;;4.50;99.90;;;;;;5107114;28;20683;-73
2021/01/24 01:57:13;;;;;;;6.73;4.63;;;4.70;99.90;;;;;;5107645;28;20828;-73
2021/01/24 01:59:39;;;;;;;5.63;5.10;;;4.30;99.90;;;;;;5085703;28;20517;-73
2021/01/24 02:02:23;;;;;;;5.40;4.70;;;4.40;99.90;;;;;;5102094;27;20497;-73
2021/01/24 02:04:58;;;;;;;4.60;4.17;;;4.40;99.90;;;;;;5077068;28;20418;-73
2021/01/24 02:07:41;;;;;;;5.53;4.83;;;4.30;99.90;;;;;;5103979;28;20436;-73
2021/01/24 02:10:21;;;;;;;5.37;4.57;;;4.50;99.90;;;;;;5107648;28;20832;-73
2021/01/24 02:13:02;;;;;;;5.87;5.27;;;4.30;99.90;;;;;;5089973;28;20446;-73
2021/01/24 02:15:30;;;;;;;5.90;5.30;;;4.20;99.90;;;;;;5078692;28;20424;-73
2021/01/24 02:18:02;;;;;;;6.73;5.33;;;4.10;99.90;;;;;;5100491;28;20910;-73
2021/01/24 02:20:57;;;;;;;6.70;5.40;;;3.90;99.90;;;;;;5089131;28;20493;-73
2021/01/24 02:23:26;;;;;;;6.73;5.80;;;3.70;99.90;;;;;;5098314;28;20464;-73
2021/01/24 02:26:26;;;;;;;7.03;5.17;;;4.00;99.90;;;;;;5107009;28;20919;-73
2021/01/24 02:29:14;;;;;;;7.17;5.40;;;3.60;99.90;;;;;;5088123;28;20479;-75
2021/01/24 02:31:41;;;;;;;5.70;4.50;;;3.60;99.90;;;;;;5096302;28;20413;-73
2021/01/24 02:34:12;;;;;;;4.87;4.00;;;3.70;99.90;;;;;;5092761;28;20421;-73
2021/01/24 02:36:38;;;;;;;4.03;3.60;;;3.60;99.90;;;;;;5088627;28;20430;-73
2021/01/24 02:39:06;;;;;;;4.07;3.67;;;3.70;99.90;;;;;;5101976;28;20436;-75
2021/01/24 02:41:33;;;;;;;3.50;2.80;;;3.70;99.90;;;;;;5091345;28;20839;-74
2021/01/24 02:44:00;;;;;;;2.60;2.40;;;3.80;99.90;;;;;;5079417;28;20543;-74
2021/01/24 02:46:27;;;;;;;2.13;1.93;;;3.60;99.90;;;;;;5097023;28;20781;-75
2021/01/24 02:48:53;;;;;;;2.23;2.03;;;3.60;99.90;;;;;;5090819;28;20417;-75
2021/01/24 02:51:20;;;;;;;2.10;1.90;;;3.50;99.90;;;;;;5088279;28;20471;-74
2021/01/24 02:53:49;;;;;;;2.50;1.60;;;3.70;99.90;;;;;;5105902;28;20429;-74
2021/01/24 02:56:22;;;;;;;2.40;1.73;;;3.50;99.90;;;;;;5088418;28;20915;-74
2021/01/24 02:58:54;;;;;;;2.70;2.37;;;3.50;99.90;;;;;;5105943;28;20413;-75
2021/01/24 03:01:20;;;;;;;1.63;1.50;;;3.40;99.90;;;;;;5084285;28;20456;-75
2021/01/24 03:03:46;;;;;;;2.03;1.83;;;3.60;99.90;;;;;;5095870;28;20818;-74
2021/01/24 03:06:11;;;;;;;1.77;1.67;;;3.50;99.90;;;;;;5106508;28;20421;-74
2021/01/24 03:08:39;;;;;;;2.97;1.83;;;3.50;99.90;;;;;;5060647;28;20206;-75
2021/01/24 03:11:07;;;;;;;2.70;1.80;;;3.20;99.90;;;;;;5071590;28;20723;-74
2021/01/24 03:13:42;;;;;;;1.67;1.57;;;3.40;99.90;;;;;;5105837;28;20482;-74
2021/01/24 03:16:09;;;;;;;2.00;1.73;;;3.40;99.90;;;;;;5099064;28;20500;-74
2021/01/24 03:18:42;;;;;;;2.13;1.93;;;3.30;99.90;;;;;;5106277;28;20501;-74
2021/01/24 03:21:10;;;;;;;2.40;2.20;;;3.20;99.90;;;;;;5106515;28;20452;-75
2021/01/24 03:23:37;;;;;;;2.67;2.40;;;3.20;99.90;;;;;;5087995;28;20433;-74
2021/01/24 03:26:06;;;;;;;2.83;2.30;;;3.20;99.90;;;;;;5106352;28;20588;-74
2021/01/24 03:28:35;;;;;;;3.10;2.87;;;3.40;99.90;;;;;;5106172;28;20418;-74
2021/01/24 03:31:03;;;;;;;3.17;2.83;;;3.20;99.90;;;;;;5081360;28;20470;-74
2021/01/24 03:33:29;;;;;;;3.50;3.10;;;3.40;99.90;;;;;;5093596;28;20425;-75
2021/01/24 03:35:55;;;;;;;3.23;2.93;;;3.60;99.90;;;;;;5106746;28;20420;-74
2021/01/24 03:38:20;;;;;;;3.47;3.10;;;3.60;99.90;;;;;;5054746;28;20490;-74
2021/01/24 03:40:48;;;;;;;3.67;3.20;;;3.50;99.90;;;;;;5106318;28;20250;-74
2021/01/24 03:43:14;;;;;;;4.07;3.67;;;3.60;99.90;;;;;;5087120;28;20903;-74
2021/01/24 03:45:39;;;;;;;4.33;3.90;;;3.70;99.90;;;;;;5083428;28;20192;-74
2021/01/24 03:48:05;;;;;;;3.90;3.50;;;3.70;99.90;;;;;;5077231;28;20241;-74
2021/01/24 03:50:31;;;;;;;4.07;3.67;;;3.60;99.90;;;;;;5087997;28;20650;-74
2021/01/24 03:52:56;;;;;;;5.10;4.37;;;3.60;99.90;;;;;;5105841;28;20418;-75
2021/01/24 03:55:24;;;;;;;4.63;4.13;;;3.70;99.90;;;;;;5054658;28;20196;-75
2021/01/24 03:57:50;;;;;;;4.80;4.27;;;3.70;99.90;;;;;;5070572;28;20751;-74
2021/01/24 04:00:16;;;;;;;5.53;4.80;;;3.60;99.90;;;;;;5101854;28;20536;-75
2021/01/24 04:02:42;;;;;;;6.70;6.00;;;3.60;99.90;;;;;;5069278;28;20181;-75
2021/01/24 04:05:08;;;;;;;6.77;6.00;;;3.80;99.90;;;;;;5044326;28;20952;-74
2021/01/24 04:07:34;;;;;;;7.90;7.10;;;3.60;99.90;;;;;;5055902;28;20180;-74
2021/01/24 04:10:00;;;;;;;8.67;7.47;;;3.50;99.90;;;;;;5110137;28;20791;-75
2021/01/24 04:12:28;;;;;;;8.90;8.00;;;3.60;99.90;;;;;;5091564;28;20421;-74
2021/01/24 04:14:54;;;;;;;9.00;8.10;;;3.70;99.90;;;;;;5108153;28;20456;-75
2021/01/24 04:17:19;;;;;;;8.83;7.50;;;3.50;99.90;;;;;;5079631;28;20603;-74
2021/01/24 04:19:45;;;;;;;10.37;8.77;;;3.60;99.90;;;;;;5110710;27;20179;-75
2021/01/24 04:22:11;;;;;;;9.50;8.47;;;3.40;99.90;;;;;;5109739;28;20646;-75
2021/01/24 04:24:36;;;;;;;10.73;9.63;;;3.50;99.90;;;;;;5108530;28;20193;-75
2021/01/24 04:27:02;;;;;;;10.23;9.17;;;3.30;99.90;;;;;;5109460;28;20195;-74
2021/01/24 04:29:28;;;;;;;13.23;10.10;;;3.50;99.90;;;;;;5090369;28;20192;-74
2021/01/24 04:31:54;;;;;;;12.07;10.73;;;3.30;99.90;;;;;;5078042;28;20228;-74
2021/01/24 04:34:19;;;;;;;12.70;10.50;;;3.50;99.90;;;;;;5056709;28;20188;-75
2021/01/24 04:36:45;;;;;;;12.17;10.90;;;3.40;99.90;;;;;;5109232;28;20429;-74
2021/01/24 04:39:11;;;;;;;12.47;11.17;;;3.40;99.90;;;;;;5048150;28;20200;-75
2021/01/24 04:41:37;;;;;;;13.00;11.70;;;3.50;99.90;;;;;;5090909;28;20264;-75
2021/01/24 04:44:07;;;;;;;12.33;10.97;;;3.50;99.90;;;;;;5090217;28;20191;-75
2021/01/24 04:46:33;;;;;;;15.80;14.07;;;3.40;99.90;;;;;;5062560;28;20482;-74
2021/01/24 04:49:00;;;;;;;16.33;14.60;;;3.70;99.90;;;;;;5087102;28;20426;-74
2021/01/24 04:51:26;;;;;;;16.80;14.60;;;3.50;99.90;;;;;;5070916;28;20532;-74
2021/01/24 04:53:56;;;;;;;17.53;15.63;;;3.30;99.90;;;;;;5089912;28;20425;-74
2021/01/24 04:56:23;;;;;;;19.07;16.20;;;3.50;99.90;;;;;;5108723;28;20400;-74
2021/01/24 04:58:49;;;;;;;20.20;17.17;;;3.40;99.90;;;;;;5108832;28;20422;-74
2021/01/24 05:01:21;;;;;;;19.40;16.77;;;3.60;99.90;;;;;;5102149;28;20474;-74
2021/01/24 05:03:50;;;;;;;17.23;15.43;;;3.30;99.90;;;;;;5069524;28;20426;-75
2021/01/24 05:06:19;;;;;;;16.23;14.23;;;3.20;99.90;;;;;;5104171;28;20776;-75
2021/01/24 05:08:45;;;;;;;15.70;13.57;;;3.20;99.90;;;;;;5070078;28;20836;-74
2021/01/24 05:11:11;;;;;;;14.03;12.53;;;3.30;99.90;;;;;;5083819;28;20429;-74
2021/01/24 05:13:37;;;;;;;13.03;11.63;;;3.50;99.90;;;;;;5108190;28;20413;-74
2021/01/24 05:16:06;;;;;;;11.40;10.30;;;3.30;99.90;;;;;;5085421;28;20440;-74
2021/01/24 05:18:32;;;;;;;10.90;9.80;;;3.20;99.90;;;;;;5105094;28;20830;-74
2021/01/24 05:20:58;;;;;;;8.93;8.03;;;3.50;99.90;;;;;;5089750;28;20449;-74
2021/01/24 05:23:25;;;;;;;8.10;7.10;;;3.70;99.90;;;;;;5107862;28;20442;-74
2021/01/24 05:25:54;;;;;;;8.50;7.70;;;3.40;99.90;;;;;;5108044;28;20422;-74
2021/01/24 05:28:22;;;;;;;6.63;6.03;;;3.40;99.90;;;;;;5089965;28;20403;-74
2021/01/24 05:30:49;;;;;;;5.80;5.30;;;3.40;99.90;;;;;;5085299;28;20439;-74
2021/01/24 05:33:18;;;;;;;6.03;5.37;;;3.30;99.90;;;;;;5067030;28;20418;-74
2021/01/24 05:35:49;;;;;;;5.60;4.70;;;3.50;99.90;;;;;;5110021;27;20444;-74
2021/01/24 05:38:28;;;;;;;5.70;5.20;;;3.50;99.90;;;;;;5089438;28;20689;-74
2021/01/24 05:41:05;;;;;;;7.10;5.83;;;3.40;99.90;;;;;;5072730;28;20465;-74
2021/01/24 05:43:44;;;;;;;7.20;5.80;;;3.10;99.90;;;;;;5089079;28;20410;-74
2021/01/24 05:46:11;;;;;;;7.83;6.20;;;3.30;99.90;;;;;;5088229;28;20396;-74
2021/01/24 05:48:47;;;;;;;6.70;5.40;;;3.40;99.90;;;;;;5105533;27;20417;-74
2021/01/24 05:51:15;;;;;;;6.53;5.83;;;3.10;99.90;;;;;;5089475;28;20444;-74
2021/01/24 05:53:45;;;;;;;7.63;6.53;;;3.10;99.90;;;;;;5102159;28;20426;-74
2021/01/24 05:56:15;;;;;;;6.70;6.00;;;3.10;99.90;;;;;;5090816;28;20442;-74
2021/01/24 05:58:41;;;;;;;6.23;5.60;;;3.20;99.90;;;;;;5107020;28;20483;-74
2021/01/24 06:01:08;;;;;;;8.33;7.00;;;3.40;99.90;;;;;;5105479;27;21078;-74
2021/01/24 06:03:35;;;;;;;7.87;7.07;;;3.10;99.90;;;;;;5081245;28;20176;-74
2021/01/24 06:06:01;;;;;;;7.50;6.70;;;3.20;99.90;;;;;;5103189;28;20384;-75
2021/01/24 06:08:27;;;;;;;7.93;7.10;;;3.00;99.90;;;;;;5089032;28;20944;-74
2021/01/24 06:10:54;;;;;;;8.50;6.53;;;3.00;99.90;;;;;;5107540;28;20188;-74
2021/01/24 06:13:27;;;;;;;8.40;6.67;;;3.00;99.90;;;;;;5071378;28;20756;-74
2021/01/24 06:15:54;;;;;;;6.57;5.70;;;3.10;99.90;;;;;;5096964;28;20467;-74
2021/01/24 06:18:27;;;;;;;8.00;6.23;;;3.10;99.90;;;;;;5057289;28;20437;-74
2021/01/24 06:21:00;;;;;;;8.20;6.23;;;3.00;99.90;;;;;;5069382;28;20461;-74
2021/01/24 06:23:32;;;;;;;8.90;6.60;;;3.10;99.90;;;;;;5085229;28;20470;-74
2021/01/24 06:26:07;;;;;;;8.13;6.73;;;3.20;99.90;;;;;;5107460;28;20461;-74
2021/01/24 06:28:38;;;;;;;9.60;7.27;;;3.10;99.90;;;;;;5071541;28;20744;-74
2021/01/24 06:31:04;;;;;;;8.87;7.47;;;3.40;99.90;;;;;;5102869;28;20446;-74
2021/01/24 06:33:30;;;;;;;8.57;7.10;;;3.10;99.90;;;;;;5098262;27;20492;-74
2021/01/24 06:36:00;;;;;;;9.70;7.23;;;3.10;99.90;;;;;;5085841;28;20920;-74
2021/01/24 06:38:33;;;;;;;9.37;7.47;;;3.10;99.90;;;;;;5103995;28;20187;-74
2021/01/24 06:41:25;;;;;;;8.87;7.57;;;3.30;99.90;;;;;;5106838;28;20923;-74
2021/01/24 06:43:50;;;;;;;7.73;6.83;;;3.10;99.90;;;;;;5103278;28;21147;-74
2021/01/24 06:46:57;;;;;;;8.27;6.97;;;3.10;99.90;;;;;;5065578;28;20905;-74
2021/01/24 06:49:40;;;;;;;8.70;7.20;;;2.90;99.90;;;;;;5092292;28;20167;-74
2021/01/24 06:52:22;;;;;;;8.53;7.60;;;3.10;99.90;;;;;;5103167;28;20421;-74
2021/01/24 06:54:49;;;;;;;7.30;6.53;;;3.20;99.90;;;;;;5105832;28;20781;-74
2021/01/24 06:57:16;;;;;;;7.37;6.57;;;3.30;99.90;;;;;;5107051;28;20392;-74
2021/01/24 06:59:42;;;;;;;8.70;7.80;;;3.10;99.90;;;;;;5088396;28;20430;-74
2021/01/24 07:02:36;;;;;;;7.70;7.00;;;3.30;99.90;;;;;;5087815;28;20437;-74
2021/01/24 07:05:19;;;;;;;11.13;8.57;;;3.10;99.90;;;;;;5086305;28;20432;-74
2021/01/24 07:07:47;;;;;;;9.40;8.17;;;2.90;99.90;;;;;;5090331;28;20482;-74
2021/01/24 07:10:38;;;;;;;9.57;7.83;;;2.90;99.90;;;;;;5108299;28;20491;-74
2021/01/24 07:13:25;;;;;;;9.97;7.97;;;3.20;99.90;;;;;;5085607;28;20413;-74
2021/01/24 07:16:09;;;;;;;9.83;8.67;;;2.90;99.90;;;;;;5091412;28;21123;-74
2021/01/24 07:18:43;;;;;;;11.13;8.20;;;3.00;99.90;;;;;;5081390;28;20920;-74
2021/01/24 07:21:10;;;;;;;10.73;8.83;;;3.00;99.90;;;;;;5103806;28;20546;-74
2021/01/24 07:23:39;;;;;;;11.40;8.30;;;3.00;99.90;;;;;;5089875;28;20444;-74
2021/01/24 07:26:07;;;;;;;10.13;9.00;;;3.10;99.90;;;;;;5107994;28;20418;-74
2021/01/24 07:28:34;;;;;;;12.47;9.23;;;3.00;99.90;;;;;;5090257;28;20483;-74
2021/01/24 07:31:04;;;;;;;9.40;7.47;;;3.20;99.90;;;;;;5090138;28;20417;-74
2021/01/24 07:33:31;;;;;;;9.93;8.27;;;3.10;99.90;;;;;;5090808;28;20428;-74
2021/01/24 07:36:14;;;;;;;11.63;9.40;;;3.20;99.90;;;;;;5103078;28;20417;-75
2021/01/24 07:38:41;;;;;;;13.60;10.93;;;3.10;99.90;;;;;;5100952;28;20413;-74
2021/01/24 07:41:08;;;;;;;13.60;11.67;;;3.40;99.90;;;;;;5091423;28;20465;-75
2021/01/24 07:43:37;;;;;;;10.10;9.10;;;3.30;99.90;;;;;;5093438;28;20903;-74
2021/01/24 07:46:04;;;;;;;11.60;10.37;;;3.40;99.90;;;;;;5111912;28;20414;-76
2021/01/24 07:48:29;;;;;;;10.53;9.40;;;3.40;99.90;;;;;;5096437;28;20456;-76
2021/01/24 07:50:55;;;;;;;12.67;9.83;;;3.40;99.90;;;;;;5078368;27;20511;-76
2021/01/24 07:53:23;;;;;;;11.10;9.40;;;3.20;99.90;;;;;;5112692;27;20184;-74
2021/01/24 07:55:49;;;;;;;12.60;10.17;;;3.10;99.90;;;;;;5103063;28;20682;-74
2021/01/24 07:58:18;;;;;;;11.70;10.20;;;3.00;99.90;;;;;;5102749;28;20483;-74
2021/01/24 08:00:44;;;;;;;16.40;10.90;;;3.10;99.90;;;;;;5108370;27;20508;-78
2021/01/24 08:03:18;;;;;;;15.10;11.23;;;3.00;99.90;;;;;;5115258;27;20417;-73
2021/01/24 08:05:46;;;;;;;14.67;10.77;;;3.10;99.90;;;;;;5108037;28;20749;-74
2021/01/24 08:08:17;;;;;;;11.80;9.27;;;3.00;99.90;;;;;;5097675;28;20808;-78
2021/01/24 08:10:43;;;;;;;11.60;9.23;;;3.20;99.90;;;;;;5111123;28;20432;-74
2021/01/24 08:13:13;;;;;;;14.10;11.13;;;3.20;99.90;;;;;;5091331;28;21058;-74
2021/01/24 08:15:39;;;;;;;16.13;11.80;;;3.40;99.90;;;;;;5109966;28;20556;-74
2021/01/24 08:18:08;;;;;;;18.37;12.50;;;3.30;99.90;;;;;;5085837;28;20494;-74
2021/01/24 08:20:34;;;;;;;21.33;13.57;;;3.30;99.90;;;;;;5101280;28;20298;-74
2021/01/24 08:23:03;;;;;;;19.80;14.13;;;3.40;99.90;;;;;;5090351;28;20518;-75
2021/01/24 08:25:29;;;;;;;17.73;13.00;;;3.50;99.90;;;;;;5109287;28;20186;-74
2021/01/24 08:27:55;;;;;;;23.90;15.00;;;3.40;99.90;;;;;;5091293;28;20472;-75
2021/01/24 08:30:21;;;;;;;20.73;14.93;;;3.30;99.90;;;;;;5093207;28;20421;-75
2021/01/24 08:32:47;;;;;;;20.80;15.70;;;3.30;99.90;;;;;;5091601;28;20972;-74
2021/01/24 08:35:14;;;;;;;22.90;16.17;;;3.10;99.90;;;;;;5105142;27;20407;-76
2021/01/24 08:37:41;;;;;;;25.03;15.00;;;3.40;99.90;;;;;;5092300;28;20414;-75
2021/01/24 08:40:07;;;;;;;22.67;15.77;;;3.40;99.90;;;;;;5091537;28;20479;-77
2021/01/24 08:42:49;;;;;;;21.70;14.20;;;3.40;99.90;;;;;;5092456;28;20448;-75
2021/01/24 08:45:19;;;;;;;20.40;14.90;;;3.50;99.90;;;;;;5084697;28;21593;-75
2021/01/24 08:48:16;;;;;;;22.77;15.50;;;3.40;99.90;;;;;;5102166;28;20424;-75
2021/01/24 08:50:42;;;;;;;21.50;14.80;;;3.50;99.90;;;;;;5109054;27;20453;-75
2021/01/24 08:53:08;;;;;;;25.20;15.00;;;3.60;99.90;;;;;;5111318;27;20402;-75
2021/01/24 08:55:47;;;;;;;22.73;15.50;;;3.60;99.90;;;;;;5092672;28;20274;-75
2021/01/24 08:58:25;;;;;;;25.90;15.33;;;3.50;99.90;;;;;;5110395;28;20496;-74
2021/01/24 09:01:09;;;;;;;25.53;16.43;;;3.60;99.90;;;;;;5110640;28;21046;-75
2021/01/24 09:03:38;;;;;;;26.70;15.90;;;3.50;99.90;;;;;;5092024;28;20429;-75
2021/01/24 09:06:22;;;;;;;25.87;15.50;;;3.60;99.90;;;;;;5103937;28;20540;-75
2021/01/24 09:08:52;;;;;;;25.90;17.00;;;3.40;99.90;;;;;;5071828;28;20413;-75
2021/01/24 09:11:21;;;;;;;32.20;16.00;;;3.60;99.90;;;;;;5101789;27;20422;-75
2021/01/24 09:13:48;;;;;;;28.37;16.97;;;3.60;99.90;;;;;;5099771;28;20916;-75
2021/01/24 09:16:14;;;;;;;26.97;15.53;;;3.70;99.90;;;;;;5105922;28;20993;-75
2021/01/24 09:18:39;;;;;;;26.33;16.10;;;3.90;99.90;;;;;;5073686;27;20422;-75
2021/01/24 09:21:06;;;;;;;28.50;16.60;;;3.60;99.90;;;;;;5091398;28;20704;-75
2021/01/24 09:23:32;;;;;;;26.00;16.80;;;3.70;99.90;;;;;;5083489;28;20552;-78
2021/01/24 09:25:59;;;;;;;31.03;18.30;;;3.50;99.90;;;;;;5107553;28;21367;-74
2021/01/24 09:28:25;;;;;;;25.07;16.80;;;3.70;99.90;;;;;;5107017;28;20443;-76
2021/01/24 09:30:53;;;;;;;26.67;17.27;;;3.70;99.90;;;;;;5097650;28;20810;-76
2021/01/24 09:33:21;;;;;;;28.63;18.57;;;3.80;99.90;;;;;;5059724;28;20193;-76
2021/01/24 09:35:50;;;;;;;25.27;17.30;;;3.70;99.90;;;;;;5078885;28;20429;-76
2021/01/24 09:38:15;;;;;;;30.80;17.20;;;3.70;99.90;;;;;;5044223;28;20490;-76
2021/01/24 09:40:47;;;;;;;27.93;17.20;;;3.90;99.90;;;;;;5069858;28;20561;-76
2021/01/24 09:43:15;;;;;;;25.10;15.53;;;3.80;99.90;;;;;;5064730;28;20188;-75
2021/01/24 09:45:41;;;;;;;24.80;16.63;;;3.80;99.90;;;;;;5075341;28;20857;-76
2021/01/24 09:48:08;;;;;;;26.17;17.33;;;3.90;99.90;;;;;;5071929;28;20418;-76
2021/01/24 09:50:33;;;;;;;25.77;15.53;;;3.90;99.90;;;;;;5099940;28;20192;-76
2021/01/24 09:52:59;;;;;;;21.00;15.40;;;3.70;99.90;;;;;;5105868;28;20421;-76
2021/01/24 09:55:27;;;;;;;23.70;15.30;;;3.90;99.90;;;;;;5091373;28;20685;-74
2021/01/24 09:57:52;;;;;;;26.90;16.43;;;3.80;99.90;;;;;;5088074;28;20339;-75
2021/01/24 10:00:18;;;;;;;22.37;16.13;;;3.90;99.90;;;;;;5108181;28;20766;-74
2021/01/24 10:02:46;;;;;;;21.20;14.83;;;3.80;99.90;;;;;;5107870;28;20183;-76
2021/01/24 10:05:12;;;;;;;21.13;13.83;;;3.70;99.90;;;;;;5101295;28;20459;-76
2021/01/24 10:07:41;;;;;;;18.77;13.40;;;4.00;99.90;;;;;;5104154;27;20421;-76
2021/01/24 10:10:10;;;;;;;19.70;13.87;;;3.80;99.90;;;;;;5108346;28;20429;-76
2021/01/24 10:12:36;;;;;;;19.83;13.83;;;3.90;99.90;;;;;;5108672;28;20425;-76
2021/01/24 10:15:01;;;;;;;21.47;13.87;;;3.90;99.90;;;;;;5089556;28;20804;-76
2021/01/24 10:17:27;;;;;;;19.63;13.20;;;3.90;99.90;;;;;;5090405;28;20191;-76
2021/01/24 10:19:53;;;;;;;18.93;13.50;;;4.00;99.90;;;;;;5090040;27;20195;-77
2021/01/24 10:22:18;;;;;;;17.77;13.93;;;3.70;99.90;;;;;;5084597;28;20204;-76
2021/01/24 10:24:44;;;;;;;22.57;15.00;;;3.90;99.90;;;;;;5082018;28;20188;-76
2021/01/24 10:27:12;;;;;;;20.47;14.83;;;3.90;99.90;;;;;;5090410;28;20567;-76
2021/01/24 10:29:40;;;;;;;18.90;12.60;;;3.80;99.90;;;;;;5090262;28;20191;-76
2021/01/24 10:32:07;;;;;;;16.80;12.37;;;3.90;99.90;;;;;;5071852;28;20418;-75
2021/01/24 10:34:35;;;;;;;19.47;12.50;;;3.80;99.90;;;;;;5051718;28;20931;-75
2021/01/24 10:37:01;;;;;;;17.60;11.90;;;4.10;99.90;;;;;;5095213;28;20481;-74
2021/01/24 10:39:27;;;;;;;16.67;11.90;;;3.90;99.90;;;;;;5118581;27;20504;-77
2021/01/24 10:41:52;;;;;;;15.90;11.73;;;3.80;99.90;;;;;;5091706;27;20301;-77
2021/01/24 10:44:18;;;;;;;17.30;12.87;;;3.90;99.90;;;;;;5089925;28;20745;-78
2021/01/24 10:46:44;;;;;;;16.47;11.90;;;3.80;99.90;;;;;;5089414;28;20184;-76
2021/01/24 10:49:10;;;;;;;17.60;12.20;;;3.80;99.90;;;;;;5071912;28;20192;-77
2021/01/24 10:51:36;;;;;;;16.03;11.47;;;3.90;99.90;;;;;;5105914;27;20607;-76
2021/01/24 10:54:02;;;;;;;17.57;11.97;;;3.80;99.90;;;;;;5114785;27;20421;-76
2021/01/24 10:56:28;;;;;;;18.77;12.17;;;4.10;99.90;;;;;;5080240;28;20430;-76
2021/01/24 10:58:54;;;;;;;25.30;14.23;;;3.90;99.90;;;;;;5068309;28;21029;-77
2021/01/24 11:01:20;;;;;;;24.60;14.60;;;3.90;99.90;;;;;;5099420;28;21058;-77
2021/01/24 11:03:45;;;;;;;20.10;12.60;;;4.10;99.90;;;;;;5052332;28;20431;-77
2021/01/24 11:06:11;;;;;;;26.20;13.20;;;3.70;99.90;;;;;;5071511;28;20211;-77
2021/01/24 11:08:39;;;;;;;21.40;12.20;;;4.10;99.90;;;;;;5059733;28;20854;-77
2021/01/24 11:11:07;;;;;;;23.63;14.87;;;3.90;99.90;;;;;;5107564;28;20237;-77
2021/01/24 11:13:36;;;;;;;18.60;13.10;;;3.90;99.90;;;;;;5089215;28;20428;-77
2021/01/24 11:16:08;;;;;;;20.13;13.00;;;4.00;99.90;;;;;;5071089;28;20433;-76
2021/01/24 11:18:34;;;;;;;19.93;12.60;;;4.10;99.90;;;;;;5096949;28;20474;-76
2021/01/24 11:20:59;;;;;;;21.00;12.10;;;4.00;99.90;;;;;;5110123;27;20439;-76
2021/01/24 11:23:28;;;;;;;18.73;11.80;;;4.10;99.90;;;;;;5092529;28;20882;-76
2021/01/24 11:25:53;;;;;;;23.30;13.37;;;4.10;99.90;;;;;;5058749;28;20550;-74
2021/01/24 11:28:19;;;;;;;27.53;13.80;;;3.90;99.90;;;;;;5088709;28;20491;-75
2021/01/24 11:30:45;;;;;;;24.73;13.60;;;4.20;99.90;;;;;;5103134;27;20202;-74
2021/01/24 11:33:13;;;;;;;19.80;14.23;;;4.10;99.90;;;;;;5099966;28;20196;-75
2021/01/24 11:35:39;;;;;;;26.20;16.10;;;4.20;99.90;;;;;;5073284;28;20636;-76
2021/01/24 11:38:05;;;;;;;31.73;17.57;;;4.00;99.90;;;;;;5074236;28;20422;-74
2021/01/24 11:40:34;;;;;;;28.17;17.47;;;4.20;99.90;;;;;;5094434;28;20258;-74
2021/01/24 11:43:02;;;;;;;29.80;18.67;;;3.80;99.90;;;;;;5090637;28;20789;-74
2021/01/24 11:45:28;;;;;;;26.80;18.13;;;3.90;99.90;;;;;;5090803;28;20524;-74
2021/01/24 11:47:55;;;;;;;27.97;18.37;;;4.00;99.90;;;;;;5090979;28;20516;-74
2021/01/24 11:50:21;;;;;;;28.73;18.10;;;4.10;99.90;;;;;;5090689;28;20192;-76
2021/01/24 11:52:49;;;;;;;30.80;20.00;;;4.00;99.90;;;;;;5086713;28;20488;-76
2021/01/24 11:55:15;;;;;;;29.20;18.67;;;4.10;99.90;;;;;;5109193;27;20482;-78
2021/01/24 11:57:41;;;;;;;26.67;16.77;;;4.00;99.90;;;;;;5073851;28;20656;-78
2021/01/24 12:00:07;;;;;;;28.53;18.87;;;3.80;99.90;;;;;;5074210;28;20252;-78
2021/01/24 12:02:33;;;;;;;27.30;18.10;;;4.20;99.90;;;;;;5090658;28;20192;-77
2021/01/24 12:05:01;;;;;;;29.10;17.63;;;4.10;99.90;;;;;;5107816;28;20425;-77
2021/01/24 12:07:29;;;;;;;30.83;18.63;;;4.10;99.90;;;;;;5102413;27;20198;-76
2021/01/24 12:09:55;;;;;;;28.53;17.30;;;4.10;99.90;;;;;;5064017;28;21226;-76
2021/01/24 12:12:21;;;;;;;26.50;15.70;;;4.00;99.90;;;;;;5092945;28;20646;-75
2021/01/24 12:14:46;;;;;;;29.90;18.40;;;4.10;99.90;;;;;;5074978;28;20580;-76
2021/01/24 12:17:12;;;;;;;25.80;16.77;;;3.80;99.90;;;;;;5072995;28;21131;-75
2021/01/24 12:19:43;;;;;;;28.47;17.67;;;3.90;99.90;;;;;;5104087;28;20222;-75
2021/01/24 12:22:09;;;;;;;25.40;16.77;;;3.80;99.90;;;;;;5108830;27;20555;-76
2021/01/24 12:24:37;;;;;;;25.50;16.80;;;3.90;99.90;;;;;;5098831;28;20500;-76
2021/01/24 12:27:04;;;;;;;24.13;15.57;;;3.60;99.90;;;;;;5074853;28;20202;-76
2021/01/24 12:29:30;;;;;;;26.20;16.00;;;4.00;99.90;;;;;;5092319;28;20482;-76
2021/01/24 12:31:55;;;;;;;28.77;15.17;;;3.70;99.90;;;;;;5074340;28;20414;-75
2021/01/24 12:34:21;;;;;;;24.20;15.00;;;3.50;99.90;;;;;;5109451;28;20601;-75
2021/01/24 12:36:49;;;;;;;25.97;15.53;;;3.80;99.90;;;;;;5091861;27;20192;-76
2021/01/24 12:39:15;;;;;;;23.67;15.53;;;3.70;99.90;;;;;;5105030;27;20639;-76
2021/01/24 12:41:41;;;;;;;25.73;14.70;;;3.50;99.90;;;;;;5075186;27;20475;-76
2021/01/24 12:44:07;;;;;;;23.07;14.83;;;3.70;99.90;;;;;;5112883;27;20187;-76
2021/01/24 12:46:32;;;;;;;24.60;15.07;;;3.90;99.90;;;;;;5110234;28;20777;-76
2021/01/24 12:48:58;;;;;;;20.83;14.00;;;3.80;99.90;;;;;;5091863;28;20425;-77
2021/01/24 12:51:24;;;;;;;22.00;14.70;;;3.90;99.90;;;;;;5091430;28;20811;-77
2021/01/24 12:53:50;;;;;;;20.90;14.23;;;4.00;99.90;;;;;;5055698;28;20233;-76
2021/01/24 12:56:16;;;;;;;24.20;14.37;;;4.10;99.90;;;;;;5105803;28;20460;-78